sensor_id;sensor_type;location;lat;lon;timestamp;temperature;humidity
15099;DHT22;33900;53.640;9.942;2023-05-25T00:01:08;14.30;85.10
15099;DHT22;33900;53.640;9.942;2023-05-25T00:03:34;14.30;85.30
15099;DHT22;33900;53.640;9.942;2023-05-25T00:06:00;14.30;85.30
15099;DHT22;33900;53.640;9.942;2023-05-25T00:08:26;14.40;85.40
15099;DHT22;33900;53.640;9.942;2023-05-25T00:10:51;14.40;85.40
15099;DHT22;33900;53.640;9.942;2023-05-25T00:13:17;14.40;85.50
15099;DHT22;33900;53.640;9.942;2023-05-25T00:15:42;14.40;85.50
15099;DHT22;33900;53.640;9.942;2023-05-25T00:18:08;14.40;85.50
15099;DHT22;33900;53.640;9.942;2023-05-25T00:20:34;14.50;85.50
15099;DHT22;33900;53.640;9.942;2023-05-25T00:22:59;14.40;85.50
15099;DHT22;33900;53.640;9.942;2023-05-25T00:25:27;14.50;85.60
15099;DHT22;33900;53.640;9.942;2023-05-25T00:27:52;14.50;85.60
15099;DHT22;33900;53.640;9.942;2023-05-25T00:30:18;14.50;85.60
15099;DHT22;33900;53.640;9.942;2023-05-25T00:32:43;14.50;85.60
15099;DHT22;33900;53.640;9.942;2023-05-25T00:35:09;14.50;85.50
15099;DHT22;33900;53.640;9.942;2023-05-25T00:37:35;14.60;85.50
15099;DHT22;33900;53.640;9.942;2023-05-25T00:40:00;14.60;85.40
15099;DHT22;33900;53.640;9.942;2023-05-25T00:42:26;14.60;85.30
15099;DHT22;33900;53.640;9.942;2023-05-25T00:44:52;14.60;85.20
15099;DHT22;33900;53.640;9.942;2023-05-25T00:47:20;14.60;85.30
15099;DHT22;33900;53.640;9.942;2023-05-25T00:49:46;14.60;85.20
15099;DHT22;33900;53.640;9.942;2023-05-25T00:52:12;14.60;85.20
15099;DHT22;33900;53.640;9.942;2023-05-25T00:54:39;14.50;85.10
15099;DHT22;33900;53.640;9.942;2023-05-25T00:57:05;14.50;85.10
15099;DHT22;33900;53.640;9.942;2023-05-25T00:59:32;14.50;85.10
15099;DHT22;33900;53.640;9.942;2023-05-25T01:02:03;14.50;85.10
15099;DHT22;33900;53.640;9.942;2023-05-25T01:04:31;14.50;85.10
15099;DHT22;33900;53.640;9.942;2023-05-25T01:06:58;14.40;85.00
15099;DHT22;33900;53.640;9.942;2023-05-25T01:09:24;14.40;85.00
15099;DHT22;33900;53.640;9.942;2023-05-25T01:11:52;14.40;85.00
15099;DHT22;33900;53.640;9.942;2023-05-25T01:14:19;14.30;84.90
15099;DHT22;33900;53.640;9.942;2023-05-25T01:16:46;14.30;84.90
15099;DHT22;33900;53.640;9.942;2023-05-25T01:19:12;14.30;84.90
15099;DHT22;33900;53.640;9.942;2023-05-25T01:21:55;14.30;84.90
15099;DHT22;33900;53.640;9.942;2023-05-25T01:27:05;14.10;84.90
15099;DHT22;33900;53.640;9.942;2023-05-25T01:29:32;14.10;84.90
15099;DHT22;33900;53.640;9.942;2023-05-25T01:31:58;14.10;85.00
15099;DHT22;33900;53.640;9.942;2023-05-25T01:34:24;14.10;85.10
15099;DHT22;33900;53.640;9.942;2023-05-25T01:36:50;14.00;85.00
15099;DHT22;33900;53.640;9.942;2023-05-25T01:39:20;14.00;85.10
15099;DHT22;33900;53.640;9.942;2023-05-25T01:41:46;13.90;85.10
15099;DHT22;33900;53.640;9.942;2023-05-25T01:44:12;13.90;85.10
15099;DHT22;33900;53.640;9.942;2023-05-25T01:46:39;13.90;85.20
15099;DHT22;33900;53.640;9.942;2023-05-25T01:49:14;13.80;85.20
15099;DHT22;33900;53.640;9.942;2023-05-25T01:51:52;13.80;85.20
15099;DHT22;33900;53.640;9.942;2023-05-25T01:54:21;13.80;85.30
15099;DHT22;33900;53.640;9.942;2023-05-25T01:56:49;13.70;85.30
15099;DHT22;33900;53.640;9.942;2023-05-25T01:59:18;13.70;85.30
15099;DHT22;33900;53.640;9.942;2023-05-25T02:01:44;13.60;85.30
15099;DHT22;33900;53.640;9.942;2023-05-25T02:04:10;13.60;85.40
15099;DHT22;33900;53.640;9.942;2023-05-25T02:06:35;13.60;85.40
15099;DHT22;33900;53.640;9.942;2023-05-25T02:09:04;13.50;85.40
15099;DHT22;33900;53.640;9.942;2023-05-25T02:11:30;13.50;85.50
15099;DHT22;33900;53.640;9.942;2023-05-25T02:13:56;13.50;85.60
15099;DHT22;33900;53.640;9.942;2023-05-25T02:19:13;13.50;85.60
15099;DHT22;33900;53.640;9.942;2023-05-25T02:21:42;13.50;85.70
15099;DHT22;33900;53.640;9.942;2023-05-25T02:24:08;13.40;85.80
15099;DHT22;33900;53.640;9.942;2023-05-25T02:26:37;13.40;85.80
15099;DHT22;33900;53.640;9.942;2023-05-25T02:29:03;13.40;85.80
15099;DHT22;33900;53.640;9.942;2023-05-25T02:31:30;13.40;85.80
15099;DHT22;33900;53.640;9.942;2023-05-25T02:33:56;13.40;85.90
15099;DHT22;33900;53.640;9.942;2023-05-25T02:36:21;13.30;85.90
15099;DHT22;33900;53.640;9.942;2023-05-25T02:38:47;13.30;86.00
15099;DHT22;33900;53.640;9.942;2023-05-25T02:41:17;13.30;86.00
15099;DHT22;33900;53.640;9.942;2023-05-25T02:43:43;13.30;86.00
15099;DHT22;33900;53.640;9.942;2023-05-25T02:46:08;13.20;86.00
15099;DHT22;33900;53.640;9.942;2023-05-25T02:48:36;13.20;86.10
15099;DHT22;33900;53.640;9.942;2023-05-25T02:51:02;13.20;86.10
15099;DHT22;33900;53.640;9.942;2023-05-25T02:53:28;13.20;86.20
15099;DHT22;33900;53.640;9.942;2023-05-25T02:55:54;13.20;86.20
15099;DHT22;33900;53.640;9.942;2023-05-25T02:58:23;13.10;86.20
15099;DHT22;33900;53.640;9.942;2023-05-25T03:01:02;13.10;86.20
15099;DHT22;33900;53.640;9.942;2023-05-25T03:03:30;13.10;86.20
15099;DHT22;33900;53.640;9.942;2023-05-25T03:05:56;13.10;86.30
15099;DHT22;33900;53.640;9.942;2023-05-25T03:08:22;13.10;86.30
15099;DHT22;33900;53.640;9.942;2023-05-25T03:10:48;13.10;86.30
15099;DHT22;33900;53.640;9.942;2023-05-25T03:13:15;13.10;86.40
15099;DHT22;33900;53.640;9.942;2023-05-25T03:15:40;13.10;86.50
15099;DHT22;33900;53.640;9.942;2023-05-25T03:18:06;13.10;86.50
15099;DHT22;33900;53.640;9.942;2023-05-25T03:20:35;13.10;86.50
15099;DHT22;33900;53.640;9.942;2023-05-25T03:23:01;13.10;86.50
15099;DHT22;33900;53.640;9.942;2023-05-25T03:25:27;13.10;86.60
15099;DHT22;33900;53.640;9.942;2023-05-25T03:27:52;13.10;86.60
15099;DHT22;33900;53.640;9.942;2023-05-25T03:30:19;13.20;86.70
15099;DHT22;33900;53.640;9.942;2023-05-25T03:32:44;13.20;86.70
15099;DHT22;33900;53.640;9.942;2023-05-25T03:35:10;13.10;86.70
15099;DHT22;33900;53.640;9.942;2023-05-25T03:37:36;13.20;86.70
15099;DHT22;33900;53.640;9.942;2023-05-25T03:40:02;13.20;86.70
15099;DHT22;33900;53.640;9.942;2023-05-25T03:42:31;13.20;86.70
15099;DHT22;33900;53.640;9.942;2023-05-25T03:44:56;13.20;86.70
15099;DHT22;33900;53.640;9.942;2023-05-25T03:47:22;13.20;86.70
15099;DHT22;33900;53.640;9.942;2023-05-25T03:49:48;13.30;86.80
15099;DHT22;33900;53.640;9.942;2023-05-25T03:52:13;13.30;86.80
15099;DHT22;33900;53.640;9.942;2023-05-25T03:54:40;13.30;86.80
15099;DHT22;33900;53.640;9.942;2023-05-25T03:57:05;13.30;86.90
15099;DHT22;33900;53.640;9.942;2023-05-25T03:59:31;13.40;87.00
15099;DHT22;33900;53.640;9.942;2023-05-25T04:01:57;13.40;87.00
15099;DHT22;33900;53.640;9.942;2023-05-25T04:04:22;13.40;87.10
15099;DHT22;33900;53.640;9.942;2023-05-25T04:06:48;13.50;87.10
15099;DHT22;33900;53.640;9.942;2023-05-25T04:09:14;13.50;87.20
15099;DHT22;33900;53.640;9.942;2023-05-25T04:11:39;13.50;87.20
15099;DHT22;33900;53.640;9.942;2023-05-25T04:14:05;13.50;87.20
15099;DHT22;33900;53.640;9.942;2023-05-25T04:16:34;13.50;87.20
15099;DHT22;33900;53.640;9.942;2023-05-25T04:19:01;13.60;87.30
15099;DHT22;33900;53.640;9.942;2023-05-25T04:21:27;13.60;87.30
15099;DHT22;33900;53.640;9.942;2023-05-25T04:23:53;13.50;87.20
15099;DHT22;33900;53.640;9.942;2023-05-25T04:26:19;13.60;87.20
15099;DHT22;33900;53.640;9.942;2023-05-25T04:28:46;13.60;87.20
15099;DHT22;33900;53.640;9.942;2023-05-25T04:31:19;13.60;87.20
15099;DHT22;33900;53.640;9.942;2023-05-25T04:33:59;13.60;87.20
15099;DHT22;33900;53.640;9.942;2023-05-25T04:36:37;13.60;87.20
15099;DHT22;33900;53.640;9.942;2023-05-25T04:39:04;13.60;87.30
15099;DHT22;33900;53.640;9.942;2023-05-25T04:41:33;13.50;87.20
15099;DHT22;33900;53.640;9.942;2023-05-25T04:44:02;13.60;87.30
15099;DHT22;33900;53.640;9.942;2023-05-25T04:46:29;13.60;87.30
15099;DHT22;33900;53.640;9.942;2023-05-25T04:48:56;13.60;87.20
15099;DHT22;33900;53.640;9.942;2023-05-25T04:51:23;13.60;87.20
15099;DHT22;33900;53.640;9.942;2023-05-25T04:53:49;13.60;87.20
15099;DHT22;33900;53.640;9.942;2023-05-25T04:56:16;13.60;87.30
15099;DHT22;33900;53.640;9.942;2023-05-25T04:58:42;13.60;87.30
15099;DHT22;33900;53.640;9.942;2023-05-25T05:01:08;13.60;87.30
15099;DHT22;33900;53.640;9.942;2023-05-25T05:03:34;13.60;87.30
15099;DHT22;33900;53.640;9.942;2023-05-25T05:06:01;13.60;87.30
15099;DHT22;33900;53.640;9.942;2023-05-25T05:08:31;13.70;87.40
15099;DHT22;33900;53.640;9.942;2023-05-25T05:10:57;13.70;87.40
15099;DHT22;33900;53.640;9.942;2023-05-25T05:13:24;13.70;88.20
15099;DHT22;33900;53.640;9.942;2023-05-25T05:15:49;13.80;87.50
15099;DHT22;33900;53.640;9.942;2023-05-25T05:18:16;13.80;88.20
15099;DHT22;33900;53.640;9.942;2023-05-25T05:20:42;13.80;87.40
15099;DHT22;33900;53.640;9.942;2023-05-25T05:23:08;13.80;87.40
15099;DHT22;33900;53.640;9.942;2023-05-25T05:25:34;13.80;87.40
15099;DHT22;33900;53.640;9.942;2023-05-25T05:28:02;13.90;87.50
15099;DHT22;33900;53.640;9.942;2023-05-25T05:30:34;13.90;87.50
15099;DHT22;33900;53.640;9.942;2023-05-25T05:33:00;13.90;87.40
15099;DHT22;33900;53.640;9.942;2023-05-25T05:35:30;13.90;87.40
15099;DHT22;33900;53.640;9.942;2023-05-25T05:38:04;13.90;87.40
15099;DHT22;33900;53.640;9.942;2023-05-25T05:40:30;14.00;87.50
15099;DHT22;33900;53.640;9.942;2023-05-25T05:42:55;14.00;87.40
15099;DHT22;33900;53.640;9.942;2023-05-25T05:45:21;14.00;87.30
15099;DHT22;33900;53.640;9.942;2023-05-25T05:47:47;14.10;87.40
15099;DHT22;33900;53.640;9.942;2023-05-25T05:50:12;14.10;87.40
15099;DHT22;33900;53.640;9.942;2023-05-25T05:52:40;14.10;87.40
15099;DHT22;33900;53.640;9.942;2023-05-25T05:55:09;14.20;87.40
15099;DHT22;33900;53.640;9.942;2023-05-25T05:57:37;14.20;87.40
15099;DHT22;33900;53.640;9.942;2023-05-25T06:00:02;14.20;87.40
15099;DHT22;33900;53.640;9.942;2023-05-25T06:02:40;14.30;87.40
15099;DHT22;33900;53.640;9.942;2023-05-25T06:05:07;14.30;87.70
15099;DHT22;33900;53.640;9.942;2023-05-25T06:07:36;14.40;87.50
15099;DHT22;33900;53.640;9.942;2023-05-25T06:10:03;14.40;87.40
15099;DHT22;33900;53.640;9.942;2023-05-25T06:12:29;14.40;87.40
15099;DHT22;33900;53.640;9.942;2023-05-25T06:14:55;14.50;87.40
15099;DHT22;33900;53.640;9.942;2023-05-25T06:17:23;14.50;87.30
15099;DHT22;33900;53.640;9.942;2023-05-25T06:19:52;14.50;87.20
15099;DHT22;33900;53.640;9.942;2023-05-25T06:22:18;14.60;87.20
15099;DHT22;33900;53.640;9.942;2023-05-25T06:24:43;14.60;87.20
15099;DHT22;33900;53.640;9.942;2023-05-25T06:27:11;14.70;87.20
15099;DHT22;33900;53.640;9.942;2023-05-25T06:29:37;14.70;87.10
15099;DHT22;33900;53.640;9.942;2023-05-25T06:32:04;14.70;87.20
15099;DHT22;33900;53.640;9.942;2023-05-25T06:34:29;14.80;87.20
15099;DHT22;33900;53.640;9.942;2023-05-25T06:36:55;14.80;87.10
15099;DHT22;33900;53.640;9.942;2023-05-25T06:39:21;14.90;87.10
15099;DHT22;33900;53.640;9.942;2023-05-25T06:41:47;14.90;87.00
15099;DHT22;33900;53.640;9.942;2023-05-25T06:44:24;15.00;87.00
15099;DHT22;33900;53.640;9.942;2023-05-25T06:46:51;15.00;86.90
15099;DHT22;33900;53.640;9.942;2023-05-25T06:49:16;15.00;86.90
15099;DHT22;33900;53.640;9.942;2023-05-25T06:51:42;15.10;86.90
15099;DHT22;33900;53.640;9.942;2023-05-25T06:54:07;15.10;86.80
15099;DHT22;33900;53.640;9.942;2023-05-25T06:56:33;15.20;86.80
15099;DHT22;33900;53.640;9.942;2023-05-25T06:58:59;15.30;86.70
15099;DHT22;33900;53.640;9.942;2023-05-25T07:01:25;15.40;86.70
15099;DHT22;33900;53.640;9.942;2023-05-25T07:03:50;15.50;86.60
15099;DHT22;33900;53.640;9.942;2023-05-25T07:06:16;15.50;86.50
15099;DHT22;33900;53.640;9.942;2023-05-25T07:08:41;15.60;86.50
15099;DHT22;33900;53.640;9.942;2023-05-25T07:11:07;15.70;86.40
15099;DHT22;33900;53.640;9.942;2023-05-25T07:13:36;15.80;86.30
15099;DHT22;33900;53.640;9.942;2023-05-25T07:16:02;15.90;86.30
15099;DHT22;33900;53.640;9.942;2023-05-25T07:18:27;15.90;86.20
15099;DHT22;33900;53.640;9.942;2023-05-25T07:20:53;16.00;86.10
15099;DHT22;33900;53.640;9.942;2023-05-25T07:23:19;16.00;85.80
15099;DHT22;33900;53.640;9.942;2023-05-25T07:25:45;16.00;85.70
15099;DHT22;33900;53.640;9.942;2023-05-25T07:28:10;16.10;85.70
15099;DHT22;33900;53.640;9.942;2023-05-25T07:30:36;16.10;85.60
15099;DHT22;33900;53.640;9.942;2023-05-25T07:33:01;16.20;85.60
15099;DHT22;33900;53.640;9.942;2023-05-25T07:35:27;16.20;85.40
15099;DHT22;33900;53.640;9.942;2023-05-25T07:37:56;16.30;85.30
15099;DHT22;33900;53.640;9.942;2023-05-25T07:40:22;16.30;85.10
15099;DHT22;33900;53.640;9.942;2023-05-25T07:42:48;16.40;84.90
15099;DHT22;33900;53.640;9.942;2023-05-25T07:45:13;16.40;84.70
15099;DHT22;33900;53.640;9.942;2023-05-25T07:47:40;16.50;84.60
15099;DHT22;33900;53.640;9.942;2023-05-25T07:50:05;16.60;84.40
15099;DHT22;33900;53.640;9.942;2023-05-25T07:52:31;16.70;83.80
15099;DHT22;33900;53.640;9.942;2023-05-25T07:54:57;16.60;83.10
15099;DHT22;33900;53.640;9.942;2023-05-25T07:57:22;16.70;82.90
15099;DHT22;33900;53.640;9.942;2023-05-25T07:59:48;16.70;83.10
15099;DHT22;33900;53.640;9.942;2023-05-25T08:02:13;16.80;82.90
15099;DHT22;33900;53.640;9.942;2023-05-25T08:04:39;16.90;82.40
15099;DHT22;33900;53.640;9.942;2023-05-25T08:07:05;17.00;82.50
15099;DHT22;33900;53.640;9.942;2023-05-25T08:09:30;17.10;82.10
15099;DHT22;33900;53.640;9.942;2023-05-25T08:11:56;17.20;81.80
15099;DHT22;33900;53.640;9.942;2023-05-25T08:14:21;17.40;81.60
15099;DHT22;33900;53.640;9.942;2023-05-25T08:16:49;17.50;80.70
15099;DHT22;33900;53.640;9.942;2023-05-25T08:19:15;17.50;80.60
15099;DHT22;33900;53.640;9.942;2023-05-25T08:21:41;17.60;80.40
15099;DHT22;33900;53.640;9.942;2023-05-25T08:24:06;17.80;80.20
15099;DHT22;33900;53.640;9.942;2023-05-25T08:26:33;17.90;79.90
15099;DHT22;33900;53.640;9.942;2023-05-25T08:29:01;18.10;80.00
15099;DHT22;33900;53.640;9.942;2023-05-25T08:31:27;18.30;79.80
15099;DHT22;33900;53.640;9.942;2023-05-25T08:33:52;18.50;80.10
15099;DHT22;33900;53.640;9.942;2023-05-25T08:36:18;18.70;79.00
15099;DHT22;33900;53.640;9.942;2023-05-25T08:38:44;18.90;78.80
15099;DHT22;33900;53.640;9.942;2023-05-25T08:41:10;19.20;79.00
15099;DHT22;33900;53.640;9.942;2023-05-25T08:43:36;19.40;79.30
15099;DHT22;33900;53.640;9.942;2023-05-25T08:46:02;19.70;78.70
15099;DHT22;33900;53.640;9.942;2023-05-25T08:48:29;20.00;78.60
15099;DHT22;33900;53.640;9.942;2023-05-25T08:50:55;20.30;77.80
15099;DHT22;33900;53.640;9.942;2023-05-25T08:53:23;20.60;76.50
15099;DHT22;33900;53.640;9.942;2023-05-25T08:55:49;20.90;75.40
15099;DHT22;33900;53.640;9.942;2023-05-25T08:58:18;21.20;74.40
15099;DHT22;33900;53.640;9.942;2023-05-25T09:00:49;21.50;72.90
15099;DHT22;33900;53.640;9.942;2023-05-25T09:03:19;21.70;71.20
15099;DHT22;33900;53.640;9.942;2023-05-25T09:05:45;21.70;69.00
15099;DHT22;33900;53.640;9.942;2023-05-25T09:08:10;21.80;69.10
15099;DHT22;33900;53.640;9.942;2023-05-25T09:10:37;21.90;68.20
15099;DHT22;33900;53.640;9.942;2023-05-25T09:13:03;21.90;67.70
15099;DHT22;33900;53.640;9.942;2023-05-25T09:15:29;21.80;67.40
15099;DHT22;33900;53.640;9.942;2023-05-25T09:17:55;21.70;67.00
15099;DHT22;33900;53.640;9.942;2023-05-25T09:20:21;21.70;67.00
15099;DHT22;33900;53.640;9.942;2023-05-25T09:22:47;21.60;66.80
15099;DHT22;33900;53.640;9.942;2023-05-25T09:25:14;21.50;67.10
15099;DHT22;33900;53.640;9.942;2023-05-25T09:27:41;21.40;67.50
15099;DHT22;33900;53.640;9.942;2023-05-25T09:30:07;21.30;67.60
15099;DHT22;33900;53.640;9.942;2023-05-25T09:32:33;21.20;67.10
15099;DHT22;33900;53.640;9.942;2023-05-25T09:35:06;21.10;66.80
15099;DHT22;33900;53.640;9.942;2023-05-25T09:37:31;20.90;67.30
15099;DHT22;33900;53.640;9.942;2023-05-25T09:39:57;20.80;67.20
15099;DHT22;33900;53.640;9.942;2023-05-25T09:42:23;20.70;67.20
15099;DHT22;33900;53.640;9.942;2023-05-25T09:44:48;20.50;67.60
15099;DHT22;33900;53.640;9.942;2023-05-25T09:47:14;20.40;67.90
15099;DHT22;33900;53.640;9.942;2023-05-25T09:49:42;20.30;68.20
15099;DHT22;33900;53.640;9.942;2023-05-25T09:52:10;20.20;68.40
15099;DHT22;33900;53.640;9.942;2023-05-25T09:54:36;20.10;68.70
15099;DHT22;33900;53.640;9.942;2023-05-25T09:57:03;20.10;68.90
15099;DHT22;33900;53.640;9.942;2023-05-25T09:59:29;20.00;69.00
15099;DHT22;33900;53.640;9.942;2023-05-25T10:01:55;20.00;69.00
15099;DHT22;33900;53.640;9.942;2023-05-25T10:04:22;19.90;69.00
15099;DHT22;33900;53.640;9.942;2023-05-25T10:06:47;19.90;69.20
15099;DHT22;33900;53.640;9.942;2023-05-25T10:09:19;19.80;69.50
15099;DHT22;33900;53.640;9.942;2023-05-25T10:11:45;19.80;69.50
15099;DHT22;33900;53.640;9.942;2023-05-25T10:14:13;19.70;69.00
15099;DHT22;33900;53.640;9.942;2023-05-25T10:16:40;19.70;69.00
15099;DHT22;33900;53.640;9.942;2023-05-25T10:22:18;19.60;69.70
15099;DHT22;33900;53.640;9.942;2023-05-25T10:24:57;19.70;70.00
15099;DHT22;33900;53.640;9.942;2023-05-25T10:27:24;19.70;70.00
15099;DHT22;33900;53.640;9.942;2023-05-25T10:29:54;19.60;70.00
15099;DHT22;33900;53.640;9.942;2023-05-25T10:32:20;19.60;70.10
15099;DHT22;33900;53.640;9.942;2023-05-25T10:34:46;19.60;70.20
15099;DHT22;33900;53.640;9.942;2023-05-25T10:37:13;19.50;70.20
15099;DHT22;33900;53.640;9.942;2023-05-25T10:39:40;19.50;70.10
15099;DHT22;33900;53.640;9.942;2023-05-25T10:42:06;19.50;70.10
15099;DHT22;33900;53.640;9.942;2023-05-25T10:44:32;19.50;70.20
15099;DHT22;33900;53.640;9.942;2023-05-25T10:46:58;19.50;70.30
15099;DHT22;33900;53.640;9.942;2023-05-25T10:49:30;19.50;70.50
15099;DHT22;33900;53.640;9.942;2023-05-25T10:52:00;19.50;70.60
15099;DHT22;33900;53.640;9.942;2023-05-25T10:54:29;19.60;70.60
15099;DHT22;33900;53.640;9.942;2023-05-25T10:57:07;19.60;70.70
15099;DHT22;33900;53.640;9.942;2023-05-25T10:59:33;19.60;70.60
15099;DHT22;33900;53.640;9.942;2023-05-25T11:02:04;19.60;70.40
15099;DHT22;33900;53.640;9.942;2023-05-25T11:04:30;19.60;70.60
15099;DHT22;33900;53.640;9.942;2023-05-25T11:09:27;19.60;69.70
15099;DHT22;33900;53.640;9.942;2023-05-25T11:22:12;19.70;70.40
15099;DHT22;33900;53.640;9.942;2023-05-25T11:24:39;19.70;70.30
15099;DHT22;33900;53.640;9.942;2023-05-25T11:27:06;19.70;69.80
15099;DHT22;33900;53.640;9.942;2023-05-25T11:29:33;19.70;69.10
15099;DHT22;33900;53.640;9.942;2023-05-25T11:32:01;19.70;69.30
15099;DHT22;33900;53.640;9.942;2023-05-25T11:34:27;19.70;69.20
15099;DHT22;33900;53.640;9.942;2023-05-25T11:36:55;19.70;69.40
15099;DHT22;33900;53.640;9.942;2023-05-25T11:39:22;19.70;69.60
15099;DHT22;33900;53.640;9.942;2023-05-25T11:41:49;19.70;69.40
15099;DHT22;33900;53.640;9.942;2023-05-25T11:44:24;19.70;69.40
15099;DHT22;33900;53.640;9.942;2023-05-25T11:46:50;19.80;69.20
15099;DHT22;33900;53.640;9.942;2023-05-25T11:49:16;19.80;69.40
15099;DHT22;33900;53.640;9.942;2023-05-25T11:51:45;19.90;69.50
15099;DHT22;33900;53.640;9.942;2023-05-25T11:54:19;20.00;69.30
15099;DHT22;33900;53.640;9.942;2023-05-25T11:56:45;20.10;69.10
15099;DHT22;33900;53.640;9.942;2023-05-25T11:59:10;20.20;69.20
15099;DHT22;33900;53.640;9.942;2023-05-25T12:01:42;20.30;69.30
15099;DHT22;33900;53.640;9.942;2023-05-25T12:04:08;20.40;69.30
15099;DHT22;33900;53.640;9.942;2023-05-25T12:06:34;20.50;69.30
15099;DHT22;33900;53.640;9.942;2023-05-25T12:09:01;20.60;69.60
15099;DHT22;33900;53.640;9.942;2023-05-25T12:13:53;20.80;70.10
15099;DHT22;33900;53.640;9.942;2023-05-25T12:16:19;20.90;70.20
15099;DHT22;33900;53.640;9.942;2023-05-25T12:18:45;21.00;70.20
15099;DHT22;33900;53.640;9.942;2023-05-25T12:21:12;21.10;70.10
15099;DHT22;33900;53.640;9.942;2023-05-25T12:23:38;21.20;69.80
15099;DHT22;33900;53.640;9.942;2023-05-25T12:26:04;21.30;69.50
15099;DHT22;33900;53.640;9.942;2023-05-25T12:28:30;21.40;69.40
15099;DHT22;33900;53.640;9.942;2023-05-25T12:30:55;21.50;69.80
15099;DHT22;33900;53.640;9.942;2023-05-25T12:33:21;21.60;69.70
15099;DHT22;33900;53.640;9.942;2023-05-25T12:35:48;21.70;69.60
15099;DHT22;33900;53.640;9.942;2023-05-25T12:38:16;21.80;69.40
15099;DHT22;33900;53.640;9.942;2023-05-25T12:40:42;21.90;69.50
15099;DHT22;33900;53.640;9.942;2023-05-25T12:43:07;21.90;69.50
15099;DHT22;33900;53.640;9.942;2023-05-25T12:45:37;22.00;69.40
15099;DHT22;33900;53.640;9.942;2023-05-25T12:48:03;22.10;69.50
15099;DHT22;33900;53.640;9.942;2023-05-25T12:50:29;22.20;69.30
15099;DHT22;33900;53.640;9.942;2023-05-25T12:52:59;22.40;69.30
15099;DHT22;33900;53.640;9.942;2023-05-25T12:55:26;22.40;69.10
15099;DHT22;33900;53.640;9.942;2023-05-25T12:57:59;22.50;68.60
15099;DHT22;33900;53.640;9.942;2023-05-25T13:00:26;22.50;68.50
15099;DHT22;33900;53.640;9.942;2023-05-25T13:02:54;22.60;68.10
15099;DHT22;33900;53.640;9.942;2023-05-25T13:05:21;22.60;68.00
15099;DHT22;33900;53.640;9.942;2023-05-25T13:07:47;22.60;67.60
15099;DHT22;33900;53.640;9.942;2023-05-25T13:10:13;22.70;68.00
15099;DHT22;33900;53.640;9.942;2023-05-25T13:12:41;22.70;68.10
15099;DHT22;33900;53.640;9.942;2023-05-25T13:15:07;22.80;68.10
15099;DHT22;33900;53.640;9.942;2023-05-25T13:17:33;22.80;68.20
15099;DHT22;33900;53.640;9.942;2023-05-25T13:19:58;22.80;67.80
15099;DHT22;33900;53.640;9.942;2023-05-25T13:22:24;22.80;67.90
15099;DHT22;33900;53.640;9.942;2023-05-25T13:24:50;22.80;67.90
15099;DHT22;33900;53.640;9.942;2023-05-25T13:27:15;22.90;67.30
15099;DHT22;33900;53.640;9.942;2023-05-25T13:29:41;22.90;67.20
15099;DHT22;33900;53.640;9.942;2023-05-25T13:32:06;22.90;67.30
15099;DHT22;33900;53.640;9.942;2023-05-25T13:34:32;22.90;67.40
15099;DHT22;33900;53.640;9.942;2023-05-25T13:36:59;22.90;67.20
15099;DHT22;33900;53.640;9.942;2023-05-25T13:39:25;23.00;67.40
15099;DHT22;33900;53.640;9.942;2023-05-25T13:41:50;23.00;67.20
15099;DHT22;33900;53.640;9.942;2023-05-25T13:44:16;23.00;67.20
15099;DHT22;33900;53.640;9.942;2023-05-25T13:46:41;23.00;67.50
15099;DHT22;33900;53.640;9.942;2023-05-25T13:49:07;23.00;67.40
15099;DHT22;33900;53.640;9.942;2023-05-25T13:51:33;23.00;67.40
15099;DHT22;33900;53.640;9.942;2023-05-25T13:54:00;23.10;67.40
15099;DHT22;33900;53.640;9.942;2023-05-25T13:56:26;23.10;66.70
15099;DHT22;33900;53.640;9.942;2023-05-25T13:58:52;23.10;66.50
15099;DHT22;33900;53.640;9.942;2023-05-25T14:01:18;23.10;66.60
15099;DHT22;33900;53.640;9.942;2023-05-25T14:03:44;23.20;66.10
15099;DHT22;33900;53.640;9.942;2023-05-25T14:06:10;23.20;66.10
15099;DHT22;33900;53.640;9.942;2023-05-25T14:08:36;23.20;66.20
15099;DHT22;33900;53.640;9.942;2023-05-25T14:11:01;23.20;66.20
15099;DHT22;33900;53.640;9.942;2023-05-25T14:13:27;23.20;65.90
15099;DHT22;33900;53.640;9.942;2023-05-25T14:15:53;23.20;66.10
15099;DHT22;33900;53.640;9.942;2023-05-25T14:18:18;23.20;66.30
15099;DHT22;33900;53.640;9.942;2023-05-25T14:20:45;23.20;66.40
15099;DHT22;33900;53.640;9.942;2023-05-25T14:23:10;23.20;66.20
15099;DHT22;33900;53.640;9.942;2023-05-25T14:25:36;23.20;66.30
15099;DHT22;33900;53.640;9.942;2023-05-25T14:28:01;23.20;66.30
15099;DHT22;33900;53.640;9.942;2023-05-25T14:30:27;23.20;66.40
15099;DHT22;33900;53.640;9.942;2023-05-25T14:32:53;23.20;65.80
15099;DHT22;33900;53.640;9.942;2023-05-25T14:35:18;23.20;66.10
15099;DHT22;33900;53.640;9.942;2023-05-25T14:37:44;23.20;66.00
15099;DHT22;33900;53.640;9.942;2023-05-25T14:40:10;23.20;65.90
15099;DHT22;33900;53.640;9.942;2023-05-25T14:42:35;23.20;66.10
15099;DHT22;33900;53.640;9.942;2023-05-25T14:45:01;23.20;66.10
15099;DHT22;33900;53.640;9.942;2023-05-25T14:47:26;23.20;65.60
15099;DHT22;33900;53.640;9.942;2023-05-25T14:49:52;23.10;65.20
15099;DHT22;33900;53.640;9.942;2023-05-25T14:52:18;23.10;65.30
15099;DHT22;33900;53.640;9.942;2023-05-25T14:54:43;23.10;65.50
15099;DHT22;33900;53.640;9.942;2023-05-25T14:57:09;23.10;65.60
15099;DHT22;33900;53.640;9.942;2023-05-25T14:59:36;23.10;65.80
15099;DHT22;33900;53.640;9.942;2023-05-25T15:02:01;23.20;65.50
15099;DHT22;33900;53.640;9.942;2023-05-25T15:04:27;23.10;65.20
15099;DHT22;33900;53.640;9.942;2023-05-25T15:06:55;23.10;64.60
15099;DHT22;33900;53.640;9.942;2023-05-25T15:09:20;23.00;64.70
15099;DHT22;33900;53.640;9.942;2023-05-25T15:11:46;23.10;64.70
15099;DHT22;33900;53.640;9.942;2023-05-25T15:14:12;23.00;64.70
15099;DHT22;33900;53.640;9.942;2023-05-25T15:16:37;23.00;64.40
15099;DHT22;33900;53.640;9.942;2023-05-25T15:19:03;23.00;64.70
15099;DHT22;33900;53.640;9.942;2023-05-25T15:21:29;22.90;64.50
15099;DHT22;33900;53.640;9.942;2023-05-25T15:23:54;22.90;64.50
15099;DHT22;33900;53.640;9.942;2023-05-25T15:26:20;22.90;64.50
15099;DHT22;33900;53.640;9.942;2023-05-25T15:28:47;22.90;64.60
15099;DHT22;33900;53.640;9.942;2023-05-25T15:31:13;22.80;64.20
15099;DHT22;33900;53.640;9.942;2023-05-25T15:33:39;22.80;64.30
15099;DHT22;33900;53.640;9.942;2023-05-25T15:36:06;22.70;63.50
15099;DHT22;33900;53.640;9.942;2023-05-25T15:38:31;22.70;63.60
15099;DHT22;33900;53.640;9.942;2023-05-25T15:40:57;22.60;63.60
15099;DHT22;33900;53.640;9.942;2023-05-25T15:43:22;22.60;63.90
15099;DHT22;33900;53.640;9.942;2023-05-25T15:45:48;22.60;63.80
15099;DHT22;33900;53.640;9.942;2023-05-25T15:48:14;22.50;64.00
15099;DHT22;33900;53.640;9.942;2023-05-25T15:50:40;22.50;63.70